Terminal Aerodrome Forecast
Issued by NWS

Current Version | Previous Version | Text Only | Print | Product List | Glossary Off
Versions: 1 2 3 4 5 6 7 8 9 10 11 12 13 14 15 16 17 18 19 20 21 22

000
FTUS41 KILN 201700
TAFLUK
TAF
KLUK 201732Z 2018/2118 22012G18KT P6SM SCT040 BKN100
      TEMPO 2020/2023 -SHRA BKN040
     FM210200 30008KT P6SM SCT035
     FM210800 32006KT P6SM BKN025
     FM211400 32010KT P6SM SCT035=

USA.gov is the U.S. government's official web portal to all federal, state and local government web resources and services.